Time;durP1;ratioP1;P1;durP2;ratioP2;P2;SDS_P1;SDS_P2;PMS_P1;PMS_P2;Temp;Humidity;BMP_temperature;BMP_pressure;BME280_temperature;BME280_humidity;BME280_pressure;Samples;Min_cycle;Max_cycle;Signal;HPM_P1;HPM_P2
2022/05/20 00:01:46;;;;;;;15.30;9.88;;;14.50;99.90;;;;;;4971095;28;20043;-74
2022/05/20 00:04:12;;;;;;;14.00;10.05;;;14.50;99.90;;;;;;4955640;28;20407;-74
2022/05/20 00:06:37;;;;;;;14.43;10.43;;;14.50;99.90;;;;;;4971552;28;20049;-74
2022/05/20 00:09:03;;;;;;;13.85;9.82;;;14.50;99.90;;;;;;4975335;28;20039;-74
2022/05/20 00:11:29;;;;;;;13.35;10.38;;;14.60;99.90;;;;;;4971595;28;20043;-74
2022/05/20 00:13:55;;;;;;;13.00;10.05;;;14.60;99.90;;;;;;4952153;28;20062;-74
2022/05/20 00:16:21;;;;;;;16.58;9.18;;;14.50;99.90;;;;;;4955745;28;20493;-74
2022/05/20 00:18:47;;;;;;;16.75;9.93;;;14.70;99.90;;;;;;4970236;28;20053;-74
2022/05/20 00:21:13;;;;;;;10.77;8.80;;;14.60;99.90;;;;;;4967076;28;20045;-74
2022/05/20 00:23:39;;;;;;;13.40;9.80;;;14.60;99.90;;;;;;4970931;28;20058;-73
2022/05/20 00:26:04;;;;;;;15.63;10.63;;;14.50;99.90;;;;;;4970553;28;20042;-74
2022/05/20 00:28:30;;;;;;;12.05;10.23;;;14.40;99.90;;;;;;4973327;28;20493;-74
2022/05/20 00:31:16;;;;;;;15.55;10.85;;;14.40;99.90;;;;;;4971404;28;20043;-74
2022/05/20 00:33:42;;;;;;;13.57;10.00;;;14.40;99.90;;;;;;4955154;28;20045;-74
2022/05/20 00:36:07;;;;;;;15.88;10.77;;;14.30;99.90;;;;;;4954843;28;20046;-73
2022/05/20 00:38:34;;;;;;;13.18;10.63;;;14.40;99.90;;;;;;4971219;28;20046;-74
2022/05/20 00:41:01;;;;;;;14.68;11.38;;;14.30;99.90;;;;;;4970097;28;20047;-74
2022/05/20 00:43:27;;;;;;;15.63;11.27;;;14.30;99.90;;;;;;4971965;28;20113;-74
2022/05/20 00:45:55;;;;;;;17.15;11.90;;;14.30;99.90;;;;;;4971010;28;20042;-73
2022/05/20 00:48:21;;;;;;;16.30;11.32;;;14.30;99.90;;;;;;4971244;28;20047;-73
2022/05/20 00:50:56;;;;;;;15.90;10.98;;;14.20;99.90;;;;;;4953821;28;20421;-74
2022/05/20 00:53:26;;;;;;;18.75;12.65;;;14.30;99.90;;;;;;4963287;28;20045;-74
2022/05/20 00:55:51;;;;;;;15.38;11.40;;;14.20;99.90;;;;;;4971027;28;20050;-73
2022/05/20 00:58:20;;;;;;;15.95;11.35;;;14.30;99.90;;;;;;4970897;28;20035;-74
2022/05/20 01:00:50;;;;;;;16.45;11.15;;;14.20;99.90;;;;;;4969156;28;20066;-75
2022/05/20 01:03:18;;;;;;;17.23;11.27;;;14.30;99.90;;;;;;4971513;28;20121;-75
2022/05/20 01:05:47;;;;;;;15.63;11.05;;;14.30;99.90;;;;;;4968017;28;20039;-74
2022/05/20 01:08:17;;;;;;;15.77;11.80;;;14.40;99.90;;;;;;4970178;28;20042;-73
2022/05/20 01:10:43;;;;;;;13.32;10.90;;;14.30;99.90;;;;;;4970086;28;20043;-74
2022/05/20 01:13:10;;;;;;;14.50;10.43;;;14.40;99.90;;;;;;4970760;28;20034;-74
2022/05/20 01:15:36;;;;;;;15.10;10.65;;;14.40;99.90;;;;;;4970997;28;20054;-74
2022/05/20 01:18:03;;;;;;;13.43;10.90;;;14.40;99.90;;;;;;4953247;28;20039;-74
2022/05/20 01:20:35;;;;;;;17.95;11.25;;;14.40;99.90;;;;;;4950614;28;20045;-75
2022/05/20 01:23:09;;;;;;;15.73;11.82;;;14.30;99.90;;;;;;4985646;28;20075;-74
2022/05/20 01:25:36;;;;;;;14.15;11.05;;;14.30;99.90;;;;;;4967918;28;20039;-74
2022/05/20 01:28:02;;;;;;;15.20;11.07;;;14.40;99.90;;;;;;4970717;28;20509;-74
2022/05/20 01:30:29;;;;;;;16.02;10.90;;;14.30;99.90;;;;;;4969759;28;20053;-74
2022/05/20 01:32:55;;;;;;;16.02;11.05;;;14.40;99.90;;;;;;4984918;28;20116;-74
2022/05/20 01:35:43;;;;;;;14.65;11.70;;;14.40;99.90;;;;;;4969707;28;20046;-74
2022/05/20 01:38:11;;;;;;;15.35;11.55;;;14.30;99.90;;;;;;4952071;28;20089;-74
2022/05/20 01:40:39;;;;;;;15.55;11.32;;;14.40;99.90;;;;;;4967688;28;20050;-74
2022/05/20 01:43:13;;;;;;;14.80;11.60;;;14.30;99.90;;;;;;4970898;28;20038;-74
2022/05/20 01:45:55;;;;;;;17.23;12.15;;;14.30;99.90;;;;;;4970588;28;20050;-74
2022/05/20 01:48:35;;;;;;;15.93;10.13;;;14.30;99.90;;;;;;4964699;28;20047;-74
2022/05/20 01:51:05;;;;;;;14.85;10.73;;;14.40;99.90;;;;;;4988813;28;20129;-74
2022/05/20 01:53:38;;;;;;;14.10;10.30;;;14.40;99.90;;;;;;4967284;28;20173;-73
2022/05/20 01:56:14;;;;;;;15.85;10.73;;;14.30;99.90;;;;;;4970055;28;20031;-73
2022/05/20 01:59:00;;;;;;;15.52;11.13;;;14.30;99.90;;;;;;4970531;28;20058;-74
2022/05/20 02:01:34;;;;;;;13.65;10.70;;;14.20;99.90;;;;;;4980945;28;20043;-74
2022/05/20 02:04:10;;;;;;;17.55;10.93;;;14.20;99.90;;;;;;4972864;28;20061;-75
2022/05/20 02:06:41;;;;;;;15.18;11.10;;;14.20;99.90;;;;;;4976901;28;20081;-75
2022/05/20 02:09:13;;;;;;;13.23;10.93;;;14.20;99.90;;;;;;4973451;28;20481;-74
2022/05/20 02:11:46;;;;;;;18.60;11.82;;;14.20;99.90;;;;;;4973628;28;20101;-73
2022/05/20 02:14:41;;;;;;;14.52;10.95;;;14.20;99.90;;;;;;4988971;28;20069;-74
2022/05/20 02:17:22;;;;;;;16.98;12.05;;;14.20;99.90;;;;;;4970776;28;20042;-74
2022/05/20 02:19:59;;;;;;;14.95;12.98;;;14.30;99.90;;;;;;4972680;28;20035;-73
2022/05/20 02:22:30;;;;;;;20.48;12.63;;;14.20;99.90;;;;;;4972961;28;20101;-74
2022/05/20 02:24:59;;;;;;;16.45;12.88;;;14.20;99.90;;;;;;4985975;28;20034;-73
2022/05/20 02:27:32;;;;;;;18.70;14.18;;;14.20;99.90;;;;;;4956926;28;20058;-74
2022/05/20 02:30:09;;;;;;;18.67;14.75;;;14.10;99.90;;;;;;4970243;28;20042;-74
2022/05/20 02:32:43;;;;;;;17.70;14.38;;;14.10;99.90;;;;;;4972962;28;20101;-74
2022/05/20 02:35:09;;;;;;;17.70;14.18;;;14.10;99.90;;;;;;4973056;28;20073;-74
2022/05/20 02:37:36;;;;;;;19.08;13.73;;;14.10;99.90;;;;;;4972976;28;20062;-73
2022/05/20 02:40:04;;;;;;;19.00;13.57;;;14.10;99.90;;;;;;4972531;28;20045;-73
2022/05/20 02:42:30;;;;;;;15.63;13.30;;;14.20;99.90;;;;;;4975884;28;20046;-73
2022/05/20 02:45:00;;;;;;;15.45;13.82;;;14.20;99.90;;;;;;4972197;28;20397;-74
2022/05/20 02:47:31;;;;;;;19.02;14.20;;;14.20;99.90;;;;;;4971883;28;20046;-74
2022/05/20 02:50:02;;;;;;;17.98;13.95;;;14.20;99.90;;;;;;4969625;28;20054;-73
2022/05/20 02:52:28;;;;;;;18.15;14.90;;;14.20;99.90;;;;;;4971358;28;20081;-74
2022/05/20 02:54:53;;;;;;;18.25;14.52;;;14.10;99.90;;;;;;4970919;28;20086;-74
2022/05/20 02:57:19;;;;;;;19.73;13.65;;;14.20;99.90;;;;;;4970141;28;20586;-74
2022/05/20 03:05:19;;;;;;;16.15;13.95;;;14.20;99.90;;;;;;4962836;28;20089;-74
2022/05/20 03:07:44;;;;;;;15.90;13.25;;;14.20;99.90;;;;;;4972368;28;20054;-73
2022/05/20 03:10:10;;;;;;;16.83;13.60;;;14.10;99.90;;;;;;4972366;28;20433;-74
2022/05/20 03:12:36;;;;;;;16.02;13.50;;;14.10;99.90;;;;;;4971805;28;20408;-74
2022/05/20 03:15:07;;;;;;;19.35;13.98;;;14.10;99.90;;;;;;4972601;28;20031;-75
2022/05/20 03:17:32;;;;;;;15.32;13.07;;;14.10;99.90;;;;;;4972213;28;20054;-74
2022/05/20 03:19:58;;;;;;;16.38;13.55;;;14.10;99.90;;;;;;4955784;28;20062;-74
2022/05/20 03:22:24;;;;;;;16.00;12.48;;;14.10;99.90;;;;;;4972701;28;20513;-74
2022/05/20 03:24:50;;;;;;;14.07;11.25;;;14.10;99.90;;;;;;4976645;28;20513;-74
2022/05/20 03:27:18;;;;;;;14.75;11.70;;;14.10;99.90;;;;;;4971179;28;20050;-74
2022/05/20 03:29:45;;;;;;;15.48;11.73;;;14.10;99.90;;;;;;4972054;28;20042;-74
2022/05/20 03:32:11;;;;;;;13.98;11.63;;;14.10;99.90;;;;;;4972910;28;20113;-73
2022/05/20 03:34:38;;;;;;;14.95;11.20;;;14.00;99.90;;;;;;4972520;28;20551;-74
2022/05/20 03:37:04;;;;;;;16.80;11.18;;;14.00;99.90;;;;;;4970314;28;20170;-74
2022/05/20 03:39:30;;;;;;;14.95;12.40;;;14.00;99.90;;;;;;4967241;28;20122;-74
2022/05/20 03:41:57;;;;;;;15.88;13.23;;;14.00;99.90;;;;;;4971695;28;20059;-74
2022/05/20 03:44:23;;;;;;;16.50;12.48;;;14.00;99.90;;;;;;4972020;28;20073;-74
2022/05/20 03:46:51;;;;;;;15.90;12.07;;;14.00;99.90;;;;;;4971011;28;20039;-74
2022/05/20 03:49:18;;;;;;;12.90;11.20;;;14.10;99.90;;;;;;4974157;28;20512;-74
2022/05/20 03:51:46;;;;;;;14.23;11.45;;;14.00;99.90;;;;;;4971849;28;20039;-74
2022/05/20 03:54:12;;;;;;;21.02;11.50;;;14.10;99.90;;;;;;4970663;28;20039;-74
2022/05/20 03:56:40;;;;;;;16.60;11.80;;;14.00;99.90;;;;;;4965244;28;20409;-74
2022/05/20 03:59:08;;;;;;;14.48;11.15;;;14.00;99.90;;;;;;4966229;28;20404;-74
2022/05/20 04:04:19;;;;;;;18.65;12.50;;;14.00;99.90;;;;;;4966892;28;20413;-74
2022/05/20 04:06:45;;;;;;;17.73;12.02;;;14.00;99.90;;;;;;4971796;28;20421;-74
2022/05/20 04:09:11;;;;;;;14.18;11.07;;;14.00;99.90;;;;;;4970335;28;20043;-73
2022/05/20 04:11:37;;;;;;;12.73;11.27;;;14.00;99.90;;;;;;4948856;28;20154;-74
2022/05/20 04:14:03;;;;;;;14.77;12.07;;;14.00;99.90;;;;;;4972073;28;20130;-74
2022/05/20 04:16:29;;;;;;;13.75;11.52;;;14.00;99.90;;;;;;4971730;28;20125;-74
2022/05/20 04:18:55;;;;;;;18.23;12.48;;;14.10;99.90;;;;;;4970921;28;20045;-74
2022/05/20 04:21:20;;;;;;;16.00;11.32;;;14.00;99.90;;;;;;4970682;28;20054;-74
2022/05/20 04:23:46;;;;;;;13.65;11.13;;;14.00;99.90;;;;;;4971230;28;20094;-74
2022/05/20 04:26:12;;;;;;;13.45;10.90;;;14.00;99.90;;;;;;4970465;28;20046;-75
2022/05/20 04:28:38;;;;;;;15.85;11.85;;;13.90;99.90;;;;;;4949823;28;20035;-74
2022/05/20 04:31:06;;;;;;;13.52;11.07;;;13.90;99.90;;;;;;4971256;28;20560;-75
2022/05/20 04:33:32;;;;;;;17.67;11.95;;;13.80;99.90;;;;;;4971318;28;20509;-75
2022/05/20 04:35:58;;;;;;;17.30;11.82;;;13.80;99.90;;;;;;4954645;28;20045;-74
2022/05/20 04:38:24;;;;;;;18.38;12.60;;;13.70;99.90;;;;;;4969049;28;20046;-73
2022/05/20 04:46:56;;;;;;;14.65;11.27;;;13.70;99.90;;;;;;4969389;28;20047;-74
2022/05/20 04:49:09;;;;;;;16.88;13.30;;;13.60;99.90;;;;;;4984033;28;20035;-74
2022/05/20 04:51:36;;;;;;;18.05;12.32;;;13.60;99.90;;;;;;4970502;28;20046;-73
2022/05/20 04:56:47;;;;;;;14.93;12.95;;;13.50;99.90;;;;;;4973639;28;20555;-74
2022/05/20 04:59:13;;;;;;;17.77;12.98;;;13.50;99.90;;;;;;4971005;28;20130;-74
2022/05/20 05:01:39;;;;;;;15.70;12.90;;;13.50;99.90;;;;;;4969995;28;20043;-73
2022/05/20 05:04:06;;;;;;;16.77;12.88;;;13.50;99.90;;;;;;4970483;28;20140;-74
2022/05/20 05:06:32;;;;;;;15.68;12.63;;;13.50;99.90;;;;;;4969648;28;20074;-73
2022/05/20 05:08:57;;;;;;;17.02;12.52;;;13.40;99.90;;;;;;4968877;28;20130;-73
2022/05/20 05:11:23;;;;;;;17.23;12.82;;;13.50;99.90;;;;;;4969764;28;20043;-74
2022/05/20 05:13:49;;;;;;;18.17;12.95;;;13.50;99.90;;;;;;4970335;28;20051;-73
2022/05/20 05:16:14;;;;;;;15.05;12.85;;;13.50;99.90;;;;;;4970669;28;20046;-73
2022/05/20 05:18:40;;;;;;;18.70;14.25;;;13.50;99.90;;;;;;4970669;28;20129;-73
2022/05/20 05:21:05;;;;;;;17.90;14.20;;;13.50;99.90;;;;;;4953830;28;20097;-73
2022/05/20 05:23:31;;;;;;;19.90;13.38;;;13.40;99.90;;;;;;4970497;28;20038;-73
2022/05/20 05:25:57;;;;;;;19.70;14.25;;;13.40;99.90;;;;;;4969782;28;20046;-74
2022/05/20 05:28:23;;;;;;;17.50;14.50;;;13.50;99.90;;;;;;4970176;28;20045;-73
2022/05/20 05:30:50;;;;;;;15.70;13.15;;;13.50;99.90;;;;;;4953959;28;20066;-73
2022/05/20 05:33:18;;;;;;;15.93;14.00;;;13.60;99.90;;;;;;4960993;28;20126;-74
2022/05/20 05:35:44;;;;;;;16.08;13.75;;;13.60;99.90;;;;;;4983085;28;20936;-74
2022/05/20 05:38:10;;;;;;;18.48;14.38;;;13.60;99.90;;;;;;4971187;28;20050;-73
2022/05/20 05:40:36;;;;;;;15.68;13.57;;;13.70;99.90;;;;;;4974055;28;20131;-73
2022/05/20 05:43:03;;;;;;;17.77;14.57;;;13.70;99.90;;;;;;4974154;28;20082;-73
2022/05/20 05:45:30;;;;;;;14.85;12.38;;;13.70;99.90;;;;;;4970072;28;20043;-73
2022/05/20 05:47:58;;;;;;;16.92;12.75;;;13.80;99.90;;;;;;4977986;28;20121;-73
2022/05/20 05:50:25;;;;;;;16.45;12.65;;;13.80;99.90;;;;;;4967690;28;20058;-74
2022/05/20 05:52:59;;;;;;;18.70;14.43;;;13.80;99.90;;;;;;4974248;28;20035;-73
2022/05/20 05:55:26;;;;;;;17.42;12.73;;;13.90;99.90;;;;;;4973282;28;20041;-73
2022/05/20 05:57:51;;;;;;;18.42;13.10;;;13.90;99.90;;;;;;4968822;28;20049;-73
2022/05/20 06:00:17;;;;;;;19.23;12.85;;;14.00;99.90;;;;;;4975623;28;20047;-72
2022/05/20 06:02:43;;;;;;;17.88;12.45;;;14.10;99.90;;;;;;4973038;28;20093;-73
2022/05/20 06:05:09;;;;;;;17.73;12.10;;;14.20;99.90;;;;;;4973831;28;20034;-73
2022/05/20 06:07:34;;;;;;;16.55;11.30;;;14.30;99.90;;;;;;4973499;28;20054;-73
2022/05/20 06:10:00;;;;;;;15.43;11.93;;;14.40;99.90;;;;;;4970744;28;20050;-73
2022/05/20 06:12:27;;;;;;;16.23;12.48;;;14.50;99.90;;;;;;4976448;28;20097;-73
2022/05/20 06:14:52;;;;;;;16.23;12.05;;;14.60;99.90;;;;;;4973574;28;20050;-73
2022/05/20 06:17:18;;;;;;;15.38;11.07;;;14.70;99.90;;;;;;4973459;28;20035;-73
2022/05/20 06:19:44;;;;;;;15.43;11.27;;;14.80;99.90;;;;;;4973393;28;20043;-73
2022/05/20 06:22:10;;;;;;;18.05;11.10;;;14.80;99.90;;;;;;4973639;28;20042;-73
2022/05/20 08:27:03;;;;;;;12.82;8.65;;;18.70;99.90;;;;;;4961938;28;20053;-73
2022/05/20 08:29:32;;;;;;;10.18;7.90;;;18.80;99.90;;;;;;4952099;28;20073;-73
2022/05/20 08:31:58;;;;;;;13.07;8.45;;;18.50;99.90;;;;;;4971218;28;20050;-73
2022/05/20 08:34:24;;;;;;;10.25;7.93;;;18.40;99.90;;;;;;4955465;28;20061;-73
2022/05/20 08:36:49;;;;;;;11.07;7.93;;;18.50;99.90;;;;;;4966364;28;20552;-73
2022/05/20 08:39:15;;;;;;;9.77;8.02;;;18.50;99.90;;;;;;4955365;28;20061;-73
2022/05/20 08:41:49;;;;;;;10.57;8.40;;;18.60;99.90;;;;;;4971203;28;20069;-73
2022/05/20 08:44:18;;;;;;;9.20;8.02;;;18.60;99.90;;;;;;4952049;29;20434;-73
2022/05/20 08:46:45;;;;;;;9.32;7.65;;;18.70;99.90;;;;;;4969722;28;20049;-73
2022/05/20 08:49:19;;;;;;;11.02;7.65;;;18.90;99.90;;;;;;4970609;28;20039;-73
2022/05/20 08:51:49;;;;;;;9.57;7.13;;;19.20;99.90;;;;;;4971320;28;20050;-73
2022/05/20 08:54:16;;;;;;;11.20;7.25;;;19.30;99.90;;;;;;4965651;28;20038;-73
2022/05/20 08:56:42;;;;;;;7.15;6.20;;;19.40;99.90;;;;;;4949637;28;20079;-73
2022/05/20 08:59:17;;;;;;;9.30;6.68;;;19.50;99.90;;;;;;4954634;28;20047;-73
2022/05/20 09:01:50;;;;;;;9.25;5.78;;;19.50;99.90;;;;;;4971221;28;20046;-73
2022/05/20 09:04:19;;;;;;;8.63;5.90;;;19.50;99.90;;;;;;4971555;28;20540;-73
2022/05/20 09:07:08;;;;;;;9.68;7.03;;;19.30;99.90;;;;;;4970786;28;20046;-73
2022/05/20 09:09:42;;;;;;;8.75;6.50;;;19.30;99.90;;;;;;4964604;28;20121;-73
2022/05/20 09:12:09;;;;;;;10.40;6.72;;;19.30;99.90;;;;;;4975312;28;20046;-73
2022/05/20 09:17:24;;;;;;;8.75;6.30;;;19.80;99.90;;;;;;4972980;28;20081;-73
2022/05/20 09:20:02;;;;;;;5.90;5.40;;;20.10;99.10;;;;;;4974529;28;20054;-73
2022/05/20 09:22:31;;;;;;;7.78;6.82;;;20.10;97.80;;;;;;4958466;28;20409;-73
2022/05/20 09:24:57;;;;;;;9.25;6.55;;;20.20;99.90;;;;;;4974776;28;20042;-73
2022/05/20 09:27:36;;;;;;;8.98;6.30;;;20.10;99.90;;;;;;4972946;28;20096;-73
2022/05/20 09:30:08;;;;;;;9.05;6.50;;;20.30;99.90;;;;;;4974714;28;20047;-73
2022/05/20 09:32:38;;;;;;;;;;;20.50;99.90;;;;;;4972549;28;20069;-73
2022/05/20 09:35:13;;;;;;;8.25;6.03;;;20.40;99.90;;;;;;4990995;28;19957;-73
2022/05/20 09:37:39;;;;;;;10.32;6.30;;;20.40;98.60;;;;;;4974849;28;20648;-73
2022/05/20 09:40:31;;;;;;;9.35;6.78;;;20.40;99.90;;;;;;4974371;28;20045;-73
2022/05/20 09:43:07;;;;;;;11.23;6.05;;;20.50;99.90;;;;;;4964039;28;20042;-73
2022/05/20 09:45:44;;;;;;;6.65;4.97;;;20.60;99.90;;;;;;4974755;28;20042;-73
2022/05/20 09:48:15;;;;;;;6.82;4.78;;;20.70;96.30;;;;;;4975076;28;20221;-73
2022/05/20 09:51:07;;;;;;;7.47;5.18;;;20.60;93.00;;;;;;4973689;28;20050;-73
2022/05/20 09:53:39;;;;;;;6.40;4.85;;;20.70;97.00;;;;;;4973016;28;20047;-73
2022/05/20 09:56:30;;;;;;;6.30;4.95;;;20.70;98.40;;;;;;4972477;28;20042;-73
2022/05/20 09:59:17;;;;;;;6.22;5.22;;;20.70;98.10;;;;;;4972382;28;20054;-73
2022/05/20 10:01:56;;;;;;;8.40;5.38;;;20.70;98.10;;;;;;4970428;28;20489;-73
2022/05/20 10:04:31;;;;;;;8.75;5.35;;;20.60;97.60;;;;;;4963152;28;20053;-73
2022/05/20 10:06:59;;;;;;;7.88;5.10;;;20.70;94.60;;;;;;4972754;28;20082;-73
2022/05/20 10:09:36;;;;;;;9.85;4.90;;;20.70;97.50;;;;;;4973955;28;20043;-73
2022/05/20 10:12:12;;;;;;;6.53;4.90;;;20.70;98.80;;;;;;4973552;28;20054;-73
2022/05/20 10:14:40;;;;;;;7.53;4.03;;;20.70;92.80;;;;;;4953332;28;20034;-73
2022/05/20 10:17:46;;;;;;;5.65;4.82;;;20.80;91.60;;;;;;4973999;28;20110;-73
2022/05/20 10:20:16;;;;;;;7.90;5.75;;;21.00;92.60;;;;;;4990445;28;20052;-73
2022/05/20 10:23:09;;;;;;;7.45;5.97;;;21.10;96.80;;;;;;4968450;28;20073;-73
2022/05/20 10:25:46;;;;;;;8.38;5.50;;;21.00;93.80;;;;;;4968729;28;20042;-73
2022/05/20 10:28:12;;;;;;;6.68;5.20;;;21.00;96.40;;;;;;4941398;28;20043;-73
2022/05/20 10:33:36;;;;;;;6.40;4.93;;;21.30;95.80;;;;;;4969383;28;20034;-73
2022/05/20 10:36:34;;;;;;;8.00;4.85;;;21.50;96.10;;;;;;4973304;28;20038;-73
2022/05/20 10:39:29;;;;;;;7.07;4.82;;;21.70;93.20;;;;;;4945793;28;20043;-73
2022/05/20 10:42:13;;;;;;;8.32;4.88;;;21.70;92.60;;;;;;4985591;28;20051;-73
2022/05/20 10:50:31;;;;;;;9.00;4.80;;;22.00;91.80;;;;;;4972035;28;20062;-73
2022/05/20 10:53:12;;;;;;;8.52;4.75;;;22.00;86.10;;;;;;4973576;28;20046;-73
2022/05/20 10:55:50;;;;;;;9.05;5.07;;;22.10;81.90;;;;;;4968517;28;20038;-73
2022/05/20 10:58:32;;;;;;;6.28;4.60;;;22.10;85.50;;;;;;4957233;28;20039;-73
2022/05/20 11:01:06;;;;;;;5.03;4.53;;;22.10;91.80;;;;;;4956949;28;20053;-73
2022/05/20 11:03:59;;;;;;;6.57;4.00;;;22.20;91.60;;;;;;4972414;28;20042;-73
2022/05/20 11:06:49;;;;;;;6.13;4.07;;;22.20;79.90;;;;;;4970224;28;20481;-73
2022/05/20 11:09:36;;;;;;;6.03;3.65;;;22.30;81.10;;;;;;4966912;28;20047;-73
2022/05/20 11:12:07;;;;;;;5.30;4.32;;;22.40;78.90;;;;;;4987466;28;20072;-73
2022/05/20 11:14:42;;;;;;;5.28;4.60;;;22.60;78.20;;;;;;4967690;28;20043;-72
2022/05/20 11:17:38;;;;;;;7.28;4.60;;;22.50;78.50;;;;;;4964830;28;20063;-72
2022/05/20 11:20:23;;;;;;;6.68;3.40;;;22.80;80.60;;;;;;4968650;28;20050;-72
2022/05/20 11:22:51;;;;;;;8.05;3.50;;;22.90;78.20;;;;;;4972098;28;20046;-72
2022/05/20 11:25:43;;;;;;;5.75;3.78;;;22.90;74.60;;;;;;4971823;28;20130;-71
2022/05/20 11:28:28;;;;;;;3.40;3.10;;;22.90;74.60;;;;;;4986124;28;20047;-71
2022/05/20 11:31:22;;;;;;;7.68;3.10;;;23.10;64.40;;;;;;4971181;28;20076;-74
2022/05/20 11:34:14;;;;;;;5.18;3.80;;;23.30;71.10;;;;;;4971092;28;20100;-74
2022/05/20 11:37:04;;;;;;;4.28;3.45;;;23.60;66.60;;;;;;4968314;28;20078;-74
2022/05/20 11:39:56;;;;;;;5.88;3.60;;;23.70;64.00;;;;;;4965066;28;20385;-74
2022/05/20 11:42:54;;;;;;;5.38;3.50;;;23.90;69.30;;;;;;4987708;28;20050;-74
2022/05/20 11:45:35;;;;;;;14.15;3.60;;;24.10;66.80;;;;;;4968136;28;20037;-74
2022/05/20 11:48:06;;;;;;;4.40;2.90;;;24.20;66.70;;;;;;4970980;28;20042;-74
2022/05/20 11:50:50;;;;;;;4.30;2.90;;;24.20;66.60;;;;;;4968590;28;20039;-74
2022/05/20 11:53:43;;;;;;;5.43;3.17;;;24.20;63.00;;;;;;4965523;28;20122;-74
2022/05/20 11:56:20;;;;;;;4.13;3.53;;;23.90;64.90;;;;;;4988023;28;20042;-74
2022/05/20 11:59:15;;;;;;;7.15;4.10;;;23.80;66.60;;;;;;4971917;28;20034;-74
2022/05/20 12:01:43;;;;;;;5.53;4.00;;;23.80;66.80;;;;;;4967596;28;20039;-73
2022/05/20 12:04:10;;;;;;;4.63;4.18;;;23.60;70.00;;;;;;4955618;28;20051;-73
2022/05/20 12:07:01;;;;;;;6.68;4.18;;;23.40;66.60;;;;;;4971686;28;20039;-74
2022/05/20 12:09:40;;;;;;;5.05;4.05;;;23.30;67.00;;;;;;4965260;28;20047;-74
2022/05/20 12:12:24;;;;;;;15.75;4.18;;;23.20;68.40;;;;;;4971748;28;20092;-74
2022/05/20 12:15:04;;;;;;;5.85;4.22;;;23.00;69.70;;;;;;4971604;28;20031;-74
2022/05/20 12:17:42;;;;;;;5.93;4.05;;;22.90;68.50;;;;;;4965783;28;20045;-74
2022/05/20 12:26:16;;;;;;;4.75;4.25;;;23.00;73.30;;;;;;4971805;28;20046;-74
2022/05/20 12:28:42;;;;;;;5.88;4.15;;;23.00;78.70;;;;;;4943403;28;20055;-73
2022/05/20 12:31:19;;;;;;;5.20;3.70;;;23.00;82.20;;;;;;4971033;28;20121;-73
2022/05/20 12:34:00;;;;;;;5.88;3.30;;;23.00;72.10;;;;;;4971765;28;20043;-74
2022/05/20 12:36:28;;;;;;;4.68;3.00;;;23.00;76.00;;;;;;4987907;28;20031;-74
2022/05/20 12:39:06;;;;;;;5.47;3.20;;;23.00;76.70;;;;;;4971602;28;20034;-73
2022/05/20 12:41:50;;;;;;;4.15;3.75;;;23.00;73.70;;;;;;4970919;28;20046;-74
2022/05/20 12:44:15;;;;;;;5.03;3.90;;;22.90;74.10;;;;;;4969460;28;20077;-73
2022/05/20 12:47:09;;;;;;;5.40;3.72;;;22.70;74.50;;;;;;4971489;28;20038;-74
2022/05/20 12:49:47;;;;;;;6.15;3.90;;;22.70;76.20;;;;;;4965655;28;20049;-74
2022/05/20 12:52:18;;;;;;;5.43;4.00;;;22.60;72.60;;;;;;4971362;28;20070;-74
2022/05/20 12:54:57;;;;;;;5.00;4.13;;;22.50;70.90;;;;;;4971049;28;20034;-74
2022/05/20 12:57:28;;;;;;;4.65;3.63;;;22.30;72.70;;;;;;4970414;28;20076;-73
2022/05/20 13:00:05;;;;;;;4.38;3.78;;;22.20;74.70;;;;;;4969869;28;20093;-73
2022/05/20 13:02:37;;;;;;;6.03;4.25;;;22.00;76.60;;;;;;4970309;28;20408;-73
2022/05/20 13:05:20;;;;;;;5.28;4.78;;;21.90;86.80;;;;;;4970457;28;20038;-74
2022/05/20 13:07:48;;;;;;;8.05;5.32;;;21.80;82.70;;;;;;4969455;28;20074;-73
2022/05/20 13:10:23;;;;;;;7.38;5.50;;;21.80;86.70;;;;;;4970047;28;20043;-74
2022/05/20 13:12:51;;;;;;;6.93;6.07;;;21.60;90.50;;;;;;4968466;28;20038;-74
2022/05/20 13:15:19;;;;;;;7.25;6.38;;;21.60;90.10;;;;;;4963567;28;20401;-73
2022/05/20 13:18:01;;;;;;;8.32;6.75;;;21.30;91.40;;;;;;4968767;28;20435;-73
2022/05/20 13:20:29;;;;;;;9.80;6.68;;;21.20;93.40;;;;;;4967313;28;20497;-73
2022/05/20 13:22:59;;;;;;;7.53;6.43;;;21.00;94.30;;;;;;4971398;28;20385;-73
2022/05/20 13:25:25;;;;;;;7.20;6.05;;;20.90;95.70;;;;;;4986229;28;20541;-73
2022/05/20 13:27:50;;;;;;;8.15;5.97;;;20.80;95.80;;;;;;4971111;28;20093;-74
2022/05/20 13:30:25;;;;;;;6.60;6.00;;;20.80;99.20;;;;;;4953351;28;20039;-73
2022/05/20 13:32:51;;;;;;;9.65;6.75;;;20.70;99.60;;;;;;4954215;28;20408;-73
2022/05/20 13:35:17;;;;;;;9.32;6.97;;;20.70;99.20;;;;;;4970164;28;20042;-73
2022/05/20 13:37:49;;;;;;;10.95;7.28;;;20.60;99.90;;;;;;4970831;28;20078;-73
2022/05/20 13:40:33;;;;;;;13.15;7.57;;;20.50;99.90;;;;;;4967806;28;20405;-73
2022/05/20 13:43:01;;;;;;;13.00;8.07;;;20.40;99.90;;;;;;4970906;28;20486;-73
2022/05/20 13:51:32;;;;;;;11.35;8.68;;;20.00;99.90;;;;;;4963000;28;20520;-73
2022/05/20 13:54:03;;;;;;;10.55;9.13;;;19.80;99.90;;;;;;4968158;28;20524;-73
2022/05/20 13:56:35;;;;;;;14.98;10.77;;;19.60;99.90;;;;;;4963635;28;20579;-75
2022/05/20 13:59:06;;;;;;;16.13;11.52;;;19.50;99.90;;;;;;4971492;28;20047;-73
2022/05/20 14:01:32;;;;;;;17.52;12.50;;;19.30;99.90;;;;;;4967950;28;20636;-73
2022/05/20 14:04:01;;;;;;;14.15;12.65;;;19.20;99.90;;;;;;4971949;28;20046;-74
2022/05/20 14:06:28;;;;;;;18.77;13.57;;;19.10;99.90;;;;;;4954844;28;20089;-73
2022/05/20 14:08:57;;;;;;;17.88;13.77;;;19.00;99.90;;;;;;4971181;28;20568;-74
2022/05/20 14:11:36;;;;;;;16.48;12.82;;;18.90;99.90;;;;;;4973710;28;20050;-74
2022/05/20 14:14:05;;;;;;;17.75;14.20;;;18.80;99.90;;;;;;4974179;28;20046;-74
2022/05/20 14:16:39;;;;;;;19.40;14.07;;;18.70;99.90;;;;;;4967762;28;20466;-73
2022/05/20 14:19:15;;;;;;;18.85;14.68;;;18.60;99.90;;;;;;4955795;28;20039;-75
2022/05/20 14:21:42;;;;;;;22.48;14.70;;;18.60;99.90;;;;;;4974075;28;20050;-73
2022/05/20 14:24:13;;;;;;;21.20;15.98;;;18.40;99.90;;;;;;4973541;28;20085;-74
2022/05/20 14:26:45;;;;;;;20.55;15.32;;;18.40;99.90;;;;;;4972997;28;20100;-73
2022/05/20 14:29:19;;;;;;;20.70;14.27;;;18.20;99.90;;;;;;4969565;28;20042;-73
2022/05/20 14:31:58;;;;;;;20.08;14.82;;;18.20;99.90;;;;;;4971615;28;20034;-75
2022/05/20 14:34:32;;;;;;;23.00;15.07;;;18.10;99.90;;;;;;4989545;28;20047;-76
2022/05/20 14:37:29;;;;;;;22.40;16.52;;;18.00;99.90;;;;;;4973415;28;20053;-73
2022/05/20 14:39:59;;;;;;;20.77;16.05;;;18.00;99.90;;;;;;4958155;28;20093;-73
2022/05/20 14:42:31;;;;;;;23.40;16.27;;;17.90;99.90;;;;;;4973410;28;20038;-73
2022/05/20 14:45:04;;;;;;;22.17;16.70;;;17.90;99.90;;;;;;4972856;28;20077;-73
2022/05/20 14:47:37;;;;;;;21.10;17.08;;;17.80;99.90;;;;;;4969376;28;20097;-73
2022/05/20 14:50:11;;;;;;;19.77;16.27;;;17.80;99.90;;;;;;4970112;28;20102;-73
2022/05/20 14:53:02;;;;;;;26.33;16.85;;;17.90;99.90;;;;;;4968422;28;20027;-73
2022/05/20 14:55:34;;;;;;;23.45;16.83;;;17.70;99.90;;;;;;4971786;28;20156;-73
2022/05/20 14:58:04;;;;;;;20.77;15.75;;;17.70;99.90;;;;;;4973265;28;20074;-73
2022/05/20 15:00:32;;;;;;;18.88;15.32;;;17.60;99.90;;;;;;4955376;28;20553;-73
2022/05/20 15:03:00;;;;;;;22.75;15.05;;;17.60;99.90;;;;;;4973612;28;20043;-73
2022/05/20 15:05:28;;;;;;;20.70;17.45;;;17.50;99.90;;;;;;4968598;28;20053;-75
2022/05/20 15:08:10;;;;;;;21.13;16.70;;;17.50;99.90;;;;;;4970880;28;20051;-74
2022/05/20 15:10:36;;;;;;;;;;;17.40;99.90;;;;;;4974756;28;20039;-74
2022/05/20 15:13:01;;;;;;;23.75;16.58;;;17.40;99.90;;;;;;4953732;28;19918;-74
2022/05/20 15:15:27;;;;;;;21.33;16.52;;;17.30;99.90;;;;;;4957215;28;20406;-74
2022/05/20 15:18:11;;;;;;;20.48;17.15;;;17.30;99.90;;;;;;4973711;28;20049;-73
2022/05/20 15:20:44;;;;;;;25.08;19.33;;;17.20;99.90;;;;;;4974956;28;20048;-74
2022/05/20 15:23:17;;;;;;;25.10;21.10;;;17.10;99.90;;;;;;4957252;28;20039;-75
2022/05/20 15:25:46;;;;;;;29.63;24.52;;;17.10;99.90;;;;;;4956751;28;20039;-74
2022/05/20 15:28:47;;;;;;;27.40;24.50;;;16.90;99.90;;;;;;4968078;28;20676;-74
2022/05/20 15:36:28;;;;;;;27.10;20.75;;;16.60;99.90;;;;;;4970147;28;20042;-75
2022/05/20 15:38:54;;;;;;;23.30;20.80;;;16.40;99.90;;;;;;4983819;28;20074;-76
2022/05/20 15:41:20;;;;;;;26.65;19.65;;;16.30;99.90;;;;;;4970167;28;20137;-75
2022/05/20 15:43:45;;;;;;;22.13;19.80;;;16.20;99.90;;;;;;4970974;28;20093;-74
2022/05/20 15:46:11;;;;;;;24.20;20.83;;;16.00;99.90;;;;;;4971701;28;20038;-74
2022/05/20 15:48:37;;;;;;;22.27;19.92;;;15.90;99.90;;;;;;4971250;28;20046;-74